createdAt,value
2023-05-10T00:01:27.232Z,1655.11111
2023-05-10T00:06:28.674Z,1565.05263
2023-05-10T00:11:30.077Z,1931.09677
2023-05-10T00:16:31.596Z,1810.66667
2023-05-10T00:21:33.117Z,2068.13793
2023-05-10T00:26:34.530Z,2068.13793
2023-05-10T00:31:35.965Z,2068.13793
2023-05-10T00:36:37.388Z,1997.33333
2023-05-10T00:41:38.828Z,2225.48148
2023-05-10T00:46:40.614Z,2225.48148
2023-05-10T00:51:42.284Z,2313.23077
2023-05-10T00:56:43.976Z,2144
2023-05-10T01:01:45.564Z,2068.13793
2023-05-10T01:06:47.086Z,2144
2023-05-10T01:11:48.552Z,2068.13793
2023-05-10T01:16:50.012Z,1997.33333
2023-05-10T01:21:51.370Z,2225.48148
2023-05-10T01:26:52.730Z,2225.48148
2023-05-10T01:31:54.296Z,2068.13793
2023-05-10T01:36:55.694Z,1997.33333
2023-05-10T01:41:57.105Z,1755.76471
2023-05-10T01:46:58.537Z,1810.66667
2023-05-10T01:51:59.954Z,1869
2023-05-10T01:57:01.313Z,1755.76471
2023-05-10T02:02:02.717Z,0
2023-05-10T02:07:04.143Z,1655.11111
2023-05-10T02:12:05.824Z,1704
2023-05-10T02:17:07.212Z,1869
2023-05-10T02:22:08.671Z,1997.33333
2023-05-10T02:27:10.038Z,1997.33333
2023-05-10T02:32:11.670Z,1997.33333
2023-05-10T02:37:13.560Z,1997.33333
2023-05-10T02:42:14.962Z,2068.13793
2023-05-10T02:47:16.355Z,2068.13793
2023-05-10T02:52:19.149Z,1997.33333
2023-05-10T02:57:20.569Z,1931.09677
2023-05-10T03:02:22.007Z,1869
2023-05-10T03:07:23.442Z,1523.48718
2023-05-10T03:12:24.880Z,0
2023-05-10T03:17:26.429Z,1608.86486
2023-05-10T03:22:27.920Z,1523.48718
2023-05-10T03:27:29.355Z,1523.48718
2023-05-10T03:32:30.820Z,1410.66667
2023-05-10T03:37:32.287Z,1446.43902
2023-05-10T03:42:33.723Z,1410.66667
2023-05-10T03:47:35.262Z,1344
2023-05-10T03:52:36.677Z,1283.13043
2023-05-10T03:57:38.208Z,1227.33333
2023-05-10T04:02:39.696Z,1201.14286
2023-05-10T04:07:41.242Z,1227.33333
2023-05-10T04:12:42.650Z,1176
2023-05-10T04:17:44.114Z,1151.84314
2023-05-10T04:22:45.529Z,1312.88889
2023-05-10T04:27:46.941Z,1201.14286
2023-05-10T04:32:48.337Z,1106.26415
2023-05-10T04:37:49.797Z,1044
2023-05-10T04:42:51.219Z,1176
2023-05-10T04:47:52.596Z,1227.33333
2023-05-10T04:52:54.012Z,1128.61538
2023-05-10T04:57:55.509Z,1084.74074
2023-05-10T05:02:56.966Z,1064
2023-05-10T05:07:58.464Z,1006.06897
2023-05-10T05:12:59.906Z,1044
2023-05-10T05:18:01.405Z,1084.74074
2023-05-10T05:23:02.868Z,1024.70175
2023-05-10T05:28:04.269Z,1024.70175
2023-05-10T05:33:05.744Z,1084.74074
2023-05-10T05:38:07.228Z,1128.61538
2023-05-10T05:43:08.666Z,1024.70175
2023-05-10T05:48:10.209Z,891.69231
2023-05-10T05:53:11.646Z,970.66667
2023-05-10T05:58:13.028Z,1044
2023-05-10T06:03:14.438Z,1064
2023-05-10T06:08:15.910Z,1044
2023-05-10T06:13:17.388Z,1064
2023-05-10T06:18:18.971Z,1084.74074
2023-05-10T06:23:20.354Z,1044
2023-05-10T06:28:21.737Z,1106.26415
2023-05-10T06:33:23.176Z,1128.61538
2023-05-10T06:38:24.501Z,1106.26415
2023-05-10T06:43:25.908Z,1106.26415
2023-05-10T06:48:27.288Z,1044
2023-05-10T06:53:28.893Z,1044
2023-05-10T06:58:30.290Z,1084.74074
2023-05-10T07:03:31.715Z,1084.74074
2023-05-10T07:08:33.095Z,1064
2023-05-10T07:13:34.555Z,1006.06897
2023-05-10T07:18:36.034Z,988.0678
2023-05-10T07:23:37.497Z,1024.70175
2023-05-10T07:28:38.933Z,1044
2023-05-10T07:33:40.287Z,988.0678
2023-05-10T07:38:41.784Z,1006.06897
2023-05-10T07:43:43.213Z,1044
2023-05-10T07:48:44.631Z,970.66667
2023-05-10T07:53:46.049Z,988.0678
2023-05-10T07:58:47.432Z,988.0678
2023-05-10T08:03:48.992Z,1006.06897
2023-05-10T08:08:50.542Z,953.83607
2023-05-10T08:13:52.009Z,937.54839
2023-05-10T08:18:53.477Z,953.83607
2023-05-10T08:23:54.906Z,970.66667
2023-05-10T08:28:56.266Z,970.66667
2023-05-10T08:33:57.704Z,1006.06897
2023-05-10T08:38:59.118Z,953.83607
2023-05-10T08:44:00.586Z,921.77778
2023-05-10T08:49:01.966Z,937.54839
2023-05-10T08:54:03.351Z,1006.06897
2023-05-10T08:59:04.755Z,1044
2023-05-10T09:04:06.195Z,1006.06897
2023-05-10T09:09:07.606Z,988.0678
2023-05-10T09:14:09.060Z,970.66667
2023-05-10T09:19:10.506Z,953.83607
2023-05-10T09:24:12.007Z,970.66667
2023-05-10T09:29:15.160Z,953.83607
2023-05-10T09:34:17.464Z,1024.70175
2023-05-10T09:39:18.868Z,1044
2023-05-10T09:44:20.363Z,1006.06897
2023-05-10T09:49:21.771Z,988.0678
2023-05-10T09:54:23.228Z,970.66667
2023-05-10T09:59:24.604Z,970.66667
2023-05-10T10:04:26.014Z,988.0678
2023-05-10T10:09:27.429Z,988.0678
2023-05-10T10:14:28.828Z,970.66667
2023-05-10T10:19:30.249Z,970.66667
2023-05-10T10:24:31.775Z,988.0678
2023-05-10T10:29:33.171Z,970.66667
2023-05-10T10:34:39.780Z,953.83607
2023-05-10T10:39:41.181Z,937.54839
2023-05-10T10:44:42.650Z,953.83607
2023-05-10T10:49:44.072Z,937.54839
2023-05-10T10:54:45.475Z,937.54839
2023-05-10T10:59:46.871Z,937.54839
2023-05-10T11:04:48.387Z,953.83607
2023-05-10T11:10:01.147Z,937.54839
2023-05-10T11:15:02.620Z,921.77778
2023-05-10T11:20:04.050Z,921.77778
2023-05-10T11:25:05.484Z,906.5
2023-05-10T11:30:06.884Z,906.5
2023-05-10T11:35:08.287Z,906.5
2023-05-10T11:40:09.697Z,906.5
2023-05-10T11:45:11.111Z,906.5
2023-05-10T11:50:12.532Z,906.5
2023-05-10T11:55:13.943Z,877.33333
2023-05-10T12:00:15.625Z,937.54839
2023-05-10T12:05:17.182Z,906.5
2023-05-10T12:10:19.001Z,921.77778
2023-05-10T12:15:20.897Z,906.5
2023-05-10T12:20:22.360Z,906.5
2023-05-10T12:25:23.761Z,937.54839
2023-05-10T12:30:25.122Z,1024.70175
2023-05-10T12:35:26.570Z,1024.70175
2023-05-10T12:40:27.944Z,1064
2023-05-10T12:45:29.334Z,1024.70175
2023-05-10T12:50:41.719Z,1024.70175
2023-05-10T12:55:43.113Z,1044
2023-05-10T13:00:44.445Z,1084.74074
2023-05-10T13:05:45.826Z,1084.74074
2023-05-10T13:10:47.154Z,1064
2023-05-10T13:15:48.525Z,1084.74074
2023-05-10T13:20:49.858Z,1084.74074
2023-05-10T13:25:51.195Z,1106.26415
2023-05-10T13:30:52.553Z,1106.26415
2023-05-10T13:35:55.761Z,1084.74074
2023-05-10T13:40:57.259Z,1084.74074
2023-05-10T13:45:59.365Z,1064
2023-05-10T13:51:00.716Z,1084.74074
2023-05-10T13:56:02.133Z,1084.74074
2023-05-10T14:01:03.512Z,1151.84314
2023-05-10T14:06:04.894Z,1128.61538
2023-05-10T14:11:06.271Z,1128.61538
2023-05-10T14:16:07.724Z,1128.61538
2023-05-10T14:21:09.096Z,1106.26415
2023-05-10T14:26:10.431Z,1176
2023-05-10T14:31:11.777Z,1176
2023-05-10T14:36:13.162Z,1151.84314
2023-05-10T14:41:14.514Z,1151.84314
2023-05-10T14:46:15.987Z,1176
2023-05-10T14:51:17.353Z,1151.84314
2023-05-10T14:56:18.749Z,1151.84314
2023-05-10T15:01:20.053Z,1201.14286
2023-05-10T15:06:21.947Z,1106.26415
2023-05-10T15:11:23.531Z,1084.74074
2023-05-10T15:16:25.158Z,1084.74074
2023-05-10T15:21:26.713Z,1084.74074
2023-05-10T15:26:28.101Z,1084.74074
2023-05-10T15:31:29.486Z,1064
2023-05-10T15:36:41.522Z,1106.26415
2023-05-10T15:41:42.824Z,1064
2023-05-10T15:46:44.224Z,1084.74074
2023-05-10T15:51:45.622Z,1106.26415
2023-05-10T15:56:47.104Z,1084.74074
2023-05-10T16:01:48.581Z,1128.61538
2023-05-10T16:06:50.045Z,1084.74074
2023-05-10T16:11:51.504Z,1084.74074
2023-05-10T16:16:53.132Z,1106.26415
2023-05-10T16:21:54.557Z,1254.6383
2023-05-10T16:26:56.009Z,1106.26415
2023-05-10T16:31:57.386Z,1176
2023-05-10T16:36:58.889Z,1151.84314
2023-05-10T16:42:00.270Z,1128.61538
2023-05-10T16:47:01.678Z,1084.74074
2023-05-10T16:52:03.081Z,1176
2023-05-10T16:57:04.516Z,1128.61538
2023-05-10T17:02:06.607Z,1128.61538
2023-05-10T17:07:08.080Z,1084.74074
2023-05-10T17:12:09.539Z,1064
2023-05-10T17:17:11.620Z,1044
2023-05-10T17:22:13.080Z,1106.26415
2023-05-10T17:27:14.560Z,1128.61538
2023-05-10T17:32:15.974Z,1106.26415
2023-05-10T17:37:17.451Z,1128.61538
2023-05-10T17:42:18.882Z,1283.13043
2023-05-10T17:47:20.463Z,1227.33333
2023-05-10T17:52:21.909Z,1128.61538
2023-05-10T17:57:23.352Z,1176
2023-05-10T18:02:24.847Z,1151.84314
2023-05-10T18:07:26.298Z,1201.14286
2023-05-10T18:12:27.709Z,1201.14286
2023-05-10T18:17:29.155Z,1176
2023-05-10T18:22:30.554Z,1176
2023-05-10T18:27:31.980Z,1151.84314
2023-05-10T18:32:33.515Z,1176
2023-05-10T18:37:34.937Z,1106.26415
2023-05-10T18:42:36.386Z,1106.26415
2023-05-10T18:47:37.816Z,1106.26415
2023-05-10T18:52:39.236Z,1176
2023-05-10T18:57:40.644Z,0
2023-05-10T19:02:42.137Z,1312.88889
2023-05-10T19:07:43.600Z,1283.13043
2023-05-10T19:12:45.069Z,1176
2023-05-10T19:17:46.461Z,1176
2023-05-10T19:23:02.208Z,1151.84314
2023-05-10T19:28:10.364Z,1064
2023-05-10T19:33:11.830Z,1024.70175
2023-05-10T19:38:13.321Z,1201.14286
2023-05-10T19:43:14.723Z,1254.6383
2023-05-10T19:48:16.232Z,1201.14286
2023-05-10T19:53:17.626Z,1201.14286
2023-05-10T19:58:19.039Z,1128.61538
2023-05-10T20:03:20.497Z,1201.14286
2023-05-10T20:08:21.956Z,1410.66667
2023-05-10T20:13:23.329Z,1176
2023-05-10T20:18:24.808Z,1176
2023-05-10T20:23:37.101Z,1283.13043
2023-05-10T20:28:38.843Z,1410.66667
2023-05-10T20:33:40.379Z,1523.48718
2023-05-10T20:38:41.808Z,1655.11111
2023-05-10T20:43:43.310Z,1655.11111
2023-05-10T20:48:44.981Z,0
2023-05-10T20:53:46.549Z,1484
2023-05-10T20:58:48.023Z,1446.43902
2023-05-10T21:03:49.443Z,1523.48718
2023-05-10T21:08:50.858Z,1344
2023-05-10T21:13:52.337Z,1344
2023-05-10T21:18:53.866Z,0
2023-05-10T21:23:55.261Z,1608.86486
2023-05-10T21:28:56.834Z,1655.11111
2023-05-10T21:33:58.217Z,1565.05263
2023-05-10T21:38:59.622Z,1565.05263
2023-05-10T21:44:01.057Z,1608.86486
2023-05-10T21:49:02.525Z,1565.05263
2023-05-10T21:54:03.911Z,1565.05263
2023-05-10T21:59:05.342Z,1655.11111
2023-05-10T22:04:06.868Z,1565.05263
2023-05-10T22:09:08.234Z,1608.86486
2023-05-10T22:14:09.754Z,1755.76471
2023-05-10T22:19:11.336Z,1655.11111
2023-05-10T22:24:12.847Z,1484
2023-05-10T22:29:14.267Z,1344
2023-05-10T22:34:15.719Z,1283.13043
2023-05-10T22:39:17.112Z,1201.14286
2023-05-10T22:44:18.508Z,1410.66667
2023-05-10T22:49:20.011Z,1655.11111
2023-05-10T22:54:21.436Z,1810.66667
2023-05-10T22:59:22.949Z,1755.76471
2023-05-10T23:04:24.525Z,1484
2023-05-10T23:09:25.975Z,1446.43902
2023-05-10T23:14:27.399Z,1312.88889
2023-05-10T23:19:28.833Z,1151.84314
2023-05-10T23:24:30.290Z,1312.88889
2023-05-10T23:29:31.686Z,0
2023-05-10T23:34:33.214Z,1446.43902
2023-05-10T23:39:34.660Z,1565.05263
2023-05-10T23:44:36.068Z,1484
2023-05-10T23:49:37.481Z,1484
2023-05-10T23:54:38.885Z,1655.11111
2023-05-10T23:59:40.304Z,1869
